Downingville, Vermont
Current Conditions -  °F | °C
As of 12:15 PM on Friday 24 Oct 2014 (Local Time) from K6B0 Reporting Station
Haze Haze  
Wind Chill: 38°   Ceiling: 900
Heat Index: 43°   Visibility: 5mi
Dew Point: 43°   Wind: 9mph
Humidity: 100%   Direction: 360°N
Pressure: 29.84"   Gusts: NA
Location:  44.1404°N, 73.0493°W
Report Text: K6B0 241615Z AUTO 36008KT 5SM BR BKN009 OVC014 06/06 A2984 RMK AO2 T00630063
Loading
Personal Weather Stations






























Interactive Weather Map
Tropical Storm Tracking
New forecast layout! Learn more

10-Day Weather Forecast

Advertisements
Track Severe Weather on mobile